KCVN/CVN METAR and TAF weather

Enter ICAO airport designator
Station Type Date Time Source
KCVN METAR 2019/12/11 14:56 UTC NOAA

KCVN 111456Z AUTO 25012KT 9SM OVC007 02/01 A3032 RMK AO2 SLP286 T00170006 51014 FZRANO


Station Type Date Time Source
KCVN Decoded METAR 2019/12/11 14:56 UTC NOAA

Clovis, Clovis Municipal Airport, NM, United States (KCVN) 34-26N 103-05W
Dec 11, 2019 - 09:56 AM EST / 2019.12.11 1456 UTC
Wind: from the WSW (250 degrees) at 14 MPH (12 KT):0
Visibility: 9 mile(s):0
Sky conditions: overcast
Temperature: 35.1 F (1.7 C)
Dew Point: 33.1 F (0.6 C)
Relative Humidity: 92%
Pressure (altimeter): 30.32 in. Hg (1026 hPa)
Pressure tendency: 0.04 inches (1.4 hPa) higher than three hours ago
ob: KCVN 111456Z AUTO 25012KT 9SM OVC007 02/01 A3032 RMK AO2 SLP286 T00170006 51014 FZRANO
cycle: 15

Station Type Date Time Source
KCVN TAF UTC NOAA

Error!

Example: see airport list